This is the latest recevied weather packets stored in our database for station/object DH1FR-13. If no packets are shown the sender has not sent any weather packets the latest 10 day(s).
| Time | Temp. | Humidity | Pressure | Rain* | Wind** | Luminosity | Snow |
|---|---|---|---|---|---|---|---|
| 1787887800 | 18.89° C | 99% | 1012.8 hPa | 3.05 mm | 0 m/s | - | - |
| 1787887201 | 18.89° C | 99% | 1012.5 hPa | 3.05 mm | 0 m/s | - | - |
| 1787886601 | 18.89° C | 99% | 1013 hPa | 3.05 mm | 0 m/s | - | - |
| 1787886000 | 18.89° C | 99% | 1013.4 hPa | 3.05 mm | 0 m/s | - | - |
| 1787885400 | 18.89° C | 99% | 1013.1 hPa | 3.05 mm | 0 m/s | - | - |
| 1787884800 | 19.44° C | 99% | 1013.1 hPa | 3.05 mm | 0 m/s | - | - |
| 1787884200 | 19.44° C | 99% | 1013 hPa | 3.05 mm | 0 m/s | - | - |
| 1787883601 | 19.44° C | 98% | 1012.8 hPa | 3.05 mm | 0 m/s | - | - |
| 1787883001 | 19.44° C | 97% | 1013.2 hPa | 2.79 mm | 0 m/s | - | - |
| 1787882400 | 19.44° C | 97% | 1014.1 hPa | 2.79 mm | 0 m/s | - | - |
| 1787881800 | 20° C | 96% | 1014.5 hPa | 2.29 mm | 0 m/s | - | - |
| 1787881201 | 20° C | 94% | 1014 hPa | 1.78 mm | 0 m/s | - | - |
| 1787880601 | 20.56° C | 91% | 1014.6 hPa | 1.02 mm | 0 m/s | - | - |
| 1787880001 | 21.11° C | 87% | 1015.2 hPa | 0 mm | 0 m/s | - | - |
| 1787879401 | 22.78° C | 77% | 1015 hPa | 0 mm | 0 m/s | - | - |
| 1787878801 | 22.78° C | 76% | 1014.4 hPa | 0 mm | 0 m/s | - | - |
| 1787878200 | 23.33° C | 73% | 1014.3 hPa | 0 mm | 0 m/s | - | - |
| 1787877600 | 23.33° C | 73% | 1013.9 hPa | 0 mm | 0 m/s | - | - |
| 1787877001 | 22.78° C | 74% | 1012.4 hPa | 0 mm | 0 m/s | - | - |
| 1787876401 | 22.22° C | 75% | 1012.2 hPa | 0 mm | 0 m/s | - | - |
| 1787875801 | 22.22° C | 74% | 1011.8 hPa | 0 mm | 0 m/s | - | - |
| 1787875201 | 22.78° C | 73% | 1011.7 hPa | 0 mm | 0 m/s | - | - |
| 1787874601 | 22.78° C | 73% | 1011.9 hPa | 0 mm | 0 m/s | - | - |
| 1787874000 | 23.33° C | 71% | 1012.2 hPa | 0 mm | 0 m/s | - | - |
| 1787873400 | 22.78° C | 73% | 1012.5 hPa | 0 mm | 0 m/s | - | - |
* Rain latest hour (hover to see other rain measurements)
** Current wind speed in m/s (hover to see current wind gust speed)